createdAt,value
2018-05-29T00:02:27.042Z,6.43
2018-05-29T00:07:17.938Z,6.73
2018-05-29T00:12:08.823Z,6.37
2018-05-29T00:16:59.691Z,6.57
2018-05-29T00:21:50.591Z,6.73
2018-05-29T00:26:42.228Z,6.33
2018-05-29T00:31:33.879Z,7.33
2018-05-29T00:36:25.545Z,6.90
2018-05-29T00:41:16.449Z,7.00
2018-05-29T00:46:07.331Z,6.57
2018-05-29T00:51:00.637Z,6.97
2018-05-29T00:55:52.261Z,6.77
2018-05-29T01:00:43.894Z,6.90
2018-05-29T01:05:35.556Z,7.07
2018-05-29T01:10:26.469Z,6.60
2018-05-29T01:15:17.380Z,7.47
2018-05-29T01:20:08.323Z,7.20
2018-05-29T01:24:59.950Z,7.60
2018-05-29T01:29:50.864Z,7.00
2018-05-29T01:34:41.748Z,7.20
2018-05-29T01:39:32.674Z,7.17
2018-05-29T01:44:24.339Z,7.10
2018-05-29T01:49:15.991Z,7.47
2018-05-29T01:54:06.988Z,7.63
2018-05-29T01:58:58.628Z,7.57
2018-05-29T02:03:51.001Z,7.00
2018-05-29T02:08:41.870Z,6.60
2018-05-29T02:13:32.885Z,7.77
2018-05-29T02:18:23.763Z,6.90
2018-05-29T02:23:14.658Z,7.43
2018-05-29T02:28:06.278Z,7.33
2018-05-29T02:32:57.171Z,7.43
2018-05-29T02:37:48.086Z,6.70
2018-05-29T02:42:39.013Z,7.87
2018-05-29T02:47:30.670Z,6.87
2018-05-29T02:52:21.569Z,7.37
2018-05-29T02:57:12.466Z,7.43
2018-05-29T03:02:03.367Z,7.30
2018-05-29T03:06:54.274Z,6.70
2018-05-29T03:11:45.919Z,6.90
2018-05-29T03:16:37.551Z,6.80
2018-05-29T03:21:29.962Z,6.50
2018-05-29T03:26:22.571Z,7.17
2018-05-29T03:31:14.236Z,7.07
2018-05-29T03:36:05.150Z,7.27
2018-05-29T03:40:56.788Z,7.10
2018-05-29T03:45:47.697Z,7.07
2018-05-29T03:50:38.586Z,7.07
2018-05-29T03:55:30.240Z,7.37
2018-05-29T04:00:22.222Z,7.57
2018-05-29T04:05:13.820Z,7.47
2018-05-29T04:10:05.486Z,7.67
2018-05-29T04:14:57.126Z,7.20
2018-05-29T04:19:48.021Z,6.97
2018-05-29T04:24:39.643Z,7.40
2018-05-29T04:29:31.278Z,7.30
2018-05-29T04:34:22.960Z,7.20
2018-05-29T04:39:13.859Z,7.67
2018-05-29T04:44:04.772Z,7.83
2018-05-29T04:48:56.461Z,7.20
2018-05-29T04:53:47.361Z,7.17
2018-05-29T04:58:38.999Z,7.43
2018-05-29T05:03:30.643Z,7.40
2018-05-29T05:08:21.555Z,8.00
2018-05-29T05:13:13.246Z,7.00
2018-05-29T05:18:05.008Z,7.30
2018-05-29T05:22:56.648Z,7.50
2018-05-29T05:27:48.427Z,7.23
2018-05-29T05:32:39.356Z,7.03
2018-05-29T05:37:30.255Z,6.50
2018-05-29T05:42:22.001Z,7.03
2018-05-29T05:47:13.624Z,6.80
2018-05-29T05:52:05.290Z,6.73
2018-05-29T05:56:56.926Z,6.43
2018-05-29T06:01:47.962Z,6.68
2018-05-29T06:06:38.874Z,6.50
2018-05-29T06:11:29.775Z,6.73
2018-05-29T06:16:20.730Z,6.00
2018-05-29T06:21:12.332Z,6.77
2018-05-29T06:26:03.260Z,7.53
2018-05-29T06:30:54.778Z,6.13
2018-05-29T06:35:46.669Z,6.30
2018-05-29T06:40:37.540Z,5.77
2018-05-29T06:45:29.500Z,5.63
2018-05-29T06:50:20.410Z,5.40
2018-05-29T06:55:11.437Z,5.40
2018-05-29T07:00:03.067Z,5.83
2018-05-29T07:04:54.711Z,5.63
2018-05-29T07:09:46.365Z,5.10
2018-05-29T07:14:38.118Z,4.90
2018-05-29T07:19:28.998Z,4.97
2018-05-29T07:24:19.939Z,4.83
2018-05-29T07:29:11.181Z,4.60
2018-05-29T07:34:02.089Z,4.10
2018-05-29T07:38:53.073Z,3.67
2018-05-29T07:43:43.944Z,4.10
2018-05-29T07:48:34.843Z,3.60
2018-05-29T07:53:26.800Z,4.10
2018-05-29T07:58:17.826Z,3.60
2018-05-29T08:03:08.762Z,5.40
2018-05-29T08:07:59.667Z,3.60
2018-05-29T08:12:50.582Z,3.70
2018-05-29T08:17:41.605Z,3.50
2018-05-29T08:22:33.275Z,3.87
2018-05-29T08:27:24.146Z,3.50
2018-05-29T08:32:15.044Z,3.47
2018-05-29T08:37:06.771Z,3.60
2018-05-29T08:41:58.419Z,3.27
2018-05-29T08:46:50.049Z,3.60
2018-05-29T08:51:41.705Z,4.30
2018-05-29T08:56:32.597Z,3.50
2018-05-29T09:01:24.246Z,3.77
2018-05-29T09:06:15.878Z,4.00
2018-05-29T09:11:07.527Z,4.00
2018-05-29T09:15:59.253Z,4.00
2018-05-29T09:20:50.938Z,4.03
2018-05-29T09:25:41.805Z,4.10
2018-05-29T09:30:33.619Z,3.80
2018-05-29T09:35:24.509Z,4.13
2018-05-29T09:40:15.397Z,4.00
2018-05-29T09:45:06.269Z,5.13
2018-05-29T09:49:57.887Z,3.97
2018-05-29T09:54:49.504Z,3.70
2018-05-29T09:59:40.381Z,3.77
2018-05-29T10:04:32.731Z,3.77
2018-05-29T10:09:25.177Z,3.47
2018-05-29T10:14:16.068Z,3.50
2018-05-29T10:19:06.949Z,3.67
2018-05-29T10:23:58.618Z,3.57
2018-05-29T10:28:50.265Z,3.70
2018-05-29T10:33:42.612Z,3.57
2018-05-29T10:38:33.484Z,3.50
2018-05-29T10:43:24.452Z,4.07
2018-05-29T10:48:15.382Z,3.30
2018-05-29T10:53:07.032Z,3.47
2018-05-29T10:57:57.910Z,3.30
2018-05-29T11:02:49.533Z,3.57
2018-05-29T11:07:41.134Z,3.03
2018-05-29T11:12:32.012Z,3.63
2018-05-29T11:17:23.624Z,3.03
2018-05-29T11:22:15.290Z,2.90
2018-05-29T11:27:06.913Z,3.00
2018-05-29T11:31:59.302Z,3.10
2018-05-29T11:36:50.212Z,3.10
2018-05-29T11:41:41.128Z,3.07
2018-05-29T11:46:32.809Z,2.90
2018-05-29T11:51:23.858Z,3.07
2018-05-29T11:56:15.462Z,3.07
2018-05-29T12:01:06.406Z,2.53
2018-05-29T12:05:57.295Z,2.85
2018-05-29T12:10:48.165Z,2.63
2018-05-29T12:15:39.810Z,2.90
2018-05-29T12:20:30.723Z,3.10
2018-05-29T12:25:22.370Z,3.57
2018-05-29T12:30:14.028Z,3.50
2018-05-29T12:35:04.977Z,3.00
2018-05-29T12:39:55.906Z,3.07
2018-05-29T12:44:46.810Z,3.50
2018-05-29T12:49:39.499Z,3.03
2018-05-29T12:54:31.226Z,3.43
2018-05-29T12:59:22.127Z,2.90
2018-05-29T13:04:13.043Z,3.47
2018-05-29T13:09:04.733Z,3.10
2018-05-29T13:13:56.390Z,3.60
2018-05-29T13:18:47.278Z,3.30
2018-05-29T13:23:38.193Z,3.50
2018-05-29T13:28:29.091Z,3.30
2018-05-29T13:33:20.039Z,3.13
2018-05-29T13:38:10.959Z,3.62
2018-05-29T13:43:03.343Z,3.53
2018-05-29T13:47:54.435Z,3.63
2018-05-29T13:52:45.338Z,3.70
2018-05-29T13:57:36.574Z,4.00
2018-05-29T14:02:27.483Z,3.80
2018-05-29T14:07:18.407Z,3.97
2018-05-29T14:12:09.288Z,3.73
2018-05-29T14:17:00.225Z,4.10
2018-05-29T14:21:51.879Z,3.83
2018-05-29T14:26:43.480Z,5.17
2018-05-29T14:31:34.399Z,4.37
2018-05-29T14:36:25.266Z,3.70
2018-05-29T14:41:17.995Z,3.53
2018-05-29T14:46:08.895Z,3.72
2018-05-29T14:51:00.504Z,4.03
2018-05-29T14:55:51.422Z,4.17
2018-05-29T15:00:42.315Z,4.23
2018-05-29T15:05:33.955Z,4.15
2018-05-29T15:10:24.981Z,3.77
2018-05-29T15:15:15.845Z,4.00
2018-05-29T15:20:07.489Z,4.10
2018-05-29T15:24:59.191Z,4.03
2018-05-29T15:29:50.065Z,4.30
2018-05-29T15:34:40.981Z,4.23
2018-05-29T15:39:31.891Z,3.63
2018-05-29T15:44:23.655Z,4.63
2018-05-29T15:49:15.566Z,3.70
2018-05-29T15:54:07.196Z,3.90
2018-05-29T15:58:58.851Z,3.90
2018-05-29T16:03:50.508Z,4.10
2018-05-29T16:08:41.402Z,3.63
2018-05-29T16:13:33.051Z,3.90
2018-05-29T16:18:23.962Z,3.90
2018-05-29T16:23:15.569Z,3.83
2018-05-29T16:28:06.485Z,3.40
2018-05-29T16:32:57.383Z,2.90
2018-05-29T16:37:48.269Z,3.30
2018-05-29T16:42:39.208Z,4.17
2018-05-29T16:47:31.901Z,4.50
2018-05-29T16:52:22.880Z,5.17
2018-05-29T16:57:14.531Z,5.50
2018-05-29T17:02:05.475Z,5.30
2018-05-29T17:06:56.367Z,5.30
2018-05-29T17:11:47.242Z,5.30
2018-05-29T17:16:39.678Z,4.93
2018-05-29T17:21:30.665Z,3.57
2018-05-29T17:26:22.306Z,4.53
2018-05-29T17:31:13.536Z,4.97
2018-05-29T17:36:04.421Z,4.47
2018-05-29T17:40:56.046Z,4.90
2018-05-29T17:45:47.670Z,4.27
2018-05-29T17:50:38.862Z,4.30
2018-05-29T17:55:29.797Z,4.47
2018-05-29T18:00:20.817Z,4.63
2018-05-29T18:05:11.730Z,4.07
2018-05-29T18:10:02.633Z,3.60
2018-05-29T18:14:53.529Z,4.77
2018-05-29T18:19:45.208Z,4.40
2018-05-29T18:24:36.111Z,4.10
2018-05-29T18:29:27.013Z,4.13
2018-05-29T18:34:18.675Z,4.20
2018-05-29T18:39:10.731Z,4.30
2018-05-29T18:44:02.365Z,5.10
2018-05-29T18:48:53.281Z,4.60
2018-05-29T18:53:44.177Z,4.87
2018-05-29T18:58:35.063Z,5.10
2018-05-29T19:03:26.062Z,4.10
2018-05-29T19:08:16.953Z,4.83
2018-05-29T19:13:08.611Z,5.10
2018-05-29T19:17:59.517Z,4.60
2018-05-29T19:22:50.443Z,4.50
2018-05-29T19:27:41.333Z,4.23
2018-05-29T19:32:33.013Z,4.13
2018-05-29T19:37:24.684Z,4.30
2018-05-29T19:42:15.583Z,5.90
2018-05-29T19:47:06.457Z,4.20
2018-05-29T19:51:58.090Z,4.77
2018-05-29T19:56:49.734Z,3.70
2018-05-29T20:01:40.651Z,4.17
2018-05-29T20:06:32.327Z,4.77
2018-05-29T20:11:23.977Z,3.93
2018-05-29T20:16:16.674Z,3.60
2018-05-29T20:21:08.310Z,4.03
2018-05-29T20:26:00.731Z,5.77
2018-05-29T20:30:52.310Z,3.87
2018-05-29T20:35:43.980Z,3.80
2018-05-29T20:40:35.726Z,3.47
2018-05-29T20:45:26.891Z,3.57
2018-05-29T20:50:19.557Z,3.63
2018-05-29T20:55:11.248Z,3.20
2018-05-29T21:00:02.163Z,3.70
2018-05-29T21:04:53.044Z,3.30
2018-05-29T21:09:44.758Z,3.50
2018-05-29T21:14:37.184Z,3.40
2018-05-29T21:19:28.106Z,3.10
2018-05-29T21:24:19.745Z,3.37
2018-05-29T21:29:10.645Z,3.47
2018-05-29T21:34:01.578Z,3.23
2018-05-29T21:38:53.236Z,3.50
2018-05-29T21:43:44.157Z,3.27
2018-05-29T21:48:35.189Z,3.43
2018-05-29T21:53:26.822Z,3.30
2018-05-29T21:58:17.737Z,3.27
2018-05-29T22:03:09.390Z,3.47
2018-05-29T22:08:00.259Z,3.30
2018-05-29T22:12:51.231Z,3.50
2018-05-29T22:17:42.084Z,3.40
2018-05-29T22:22:33.742Z,3.57
2018-05-29T22:27:26.451Z,3.40
2018-05-29T22:32:17.460Z,3.50
2018-05-29T22:37:08.301Z,3.50
2018-05-29T22:41:59.218Z,3.60
2018-05-29T22:46:50.242Z,4.07
2018-05-29T22:51:41.115Z,3.40
2018-05-29T22:56:32.007Z,4.00
2018-05-29T23:01:24.593Z,3.53
2018-05-29T23:06:16.211Z,3.73
2018-05-29T23:11:07.828Z,3.83
2018-05-29T23:15:58.729Z,3.67
2018-05-29T23:20:49.620Z,3.40
2018-05-29T23:25:40.495Z,3.73
2018-05-29T23:30:31.457Z,3.70
2018-05-29T23:35:22.373Z,3.70
2018-05-29T23:40:14.035Z,3.70
2018-05-29T23:45:04.996Z,3.73
2018-05-29T23:49:55.952Z,4.17
2018-05-29T23:54:47.601Z,3.90
2018-05-29T23:59:39.298Z,3.70
